ADDS METAR Data INFO
IDs: Format: Raw Decoded Include TAF

Data at: 1639 UTC 23 Nov 2017

KLZZ 231635Z AUTO 24004KT 10SM CLR 15/M02 A3019 RMK AO2 T01451022
KLZZ 231615Z AUTO 28004KT 10SM CLR 14/M02 A3020 RMK AO2 T01371023
KLZZ 231555Z AUTO 27005KT 10SM CLR 13/M03 A3020 RMK AO2 T01301026
KLZZ 231535Z AUTO 00000KT 10SM CLR 12/M01 A3020 RMK AO2 T01231006
KLZZ 231515Z AUTO 24004KT 10SM CLR 11/M02 A3020 RMK AO2 T01081020
KLZZ 231455Z AUTO 00000KT 10SM CLR 10/00 A3020 RMK AO2 T00950002
KLZZ 231435Z AUTO 00000KT 10SM CLR 06/M01 A3020 RMK AO2 T00591009
KLZZ 231415Z AUTO 00000KT 10SM CLR 05/M01 A3020 RMK AO2 T00451007
KLZZ 231355Z AUTO 00000KT 10SM CLR 03/00 A3020 RMK AO2 T00310000
KLZZ 231335Z AUTO 00000KT 10SM CLR 02/M01 A3020 RMK AO2 T00171014
KLZZ 231315Z AUTO 00000KT 10SM CLR 01/M02 A3020 RMK AO2 T00101024
KLZZ 231255Z AUTO 00000KT 10SM CLR 01/M03 A3019 RMK AO2 T00111026
KLZZ 231235Z AUTO 00000KT 10SM CLR 00/M03 A3019 RMK AO2 T10021029
KLZZ 231215Z AUTO 00000KT 10SM CLR 00/M03 A3019 RMK AO2 T10011031
KLZZ 231155Z AUTO 00000KT 10SM CLR 02/M03 A3018 RMK AO2 T00161029 10031 21008
KLZZ 231135Z AUTO 00000KT 10SM CLR 01/M03 A3018 RMK AO2 T00131031
KLZZ 231115Z AUTO 00000KT 10SM CLR 02/M04 A3018 RMK AO2 T00171037
KLZZ 231055Z AUTO 00000KT 10SM CLR 02/M03 A3018 RMK AO2 T00151030
KLZZ 231035Z AUTO 00000KT 10SM CLR 00/M03 A3019 RMK AO2 T00031034
KLZZ 231015Z AUTO 00000KT 10SM CLR 00/M03 A3019 RMK AO2 T00021029
KLZZ 230955Z AUTO 00000KT 10SM CLR 00/M03 A3020 RMK AO2 T00031029
KLZZ 230935Z AUTO 00000KT 10SM CLR 02/M03 A3020 RMK AO2 T00171032
KLZZ 230915Z AUTO 00000KT 10SM CLR 00/M03 A3020 RMK AO2 T00031026
KLZZ 230855Z AUTO 00000KT 10SM CLR 00/M03 A3021 RMK AO2 T00031031
KLZZ 230835Z AUTO 00000KT 10SM CLR 00/M03 A3022 RMK AO2 T00001034
KLZZ 230815Z AUTO 00000KT 10SM CLR 00/M02 A3023 RMK AO2 T00031025
KLZZ 230755Z AUTO 00000KT 10SM CLR 02/M03 A3023 RMK AO2 T00171026
KLZZ 230735Z AUTO 00000KT 10SM CLR 02/M03 A3022 RMK AO2 T00171030
KLZZ 230715Z AUTO 00000KT 10SM CLR 02/M04 A3023 RMK AO2 T00171037
KLZZ 230655Z AUTO 00000KT 10SM CLR 01/M03 A3023 RMK AO2 T00101032
KLZZ 230635Z AUTO 00000KT 10SM CLR 02/M04 A3024 RMK AO2 T00201039
KLZZ 230615Z AUTO 00000KT 10SM CLR 02/M03 A3024 RMK AO2 T00171033
KLZZ 230555Z AUTO 00000KT 10SM CLR 03/M03 A3025 RMK AO2 T00261029 10102 20017 401580017
KLZZ 230535Z AUTO 00000KT 10SM CLR 03/M03 A3026 RMK AO2 T00271028
KLZZ 230515Z AUTO 00000KT 10SM CLR 02/M03 A3026 RMK AO2 T00191031
KLZZ 230455Z AUTO 00000KT 10SM CLR 03/M03 A3027 RMK AO2 T00341035
KLZZ 230435Z AUTO 00000KT 10SM CLR 03/M03 A3027 RMK AO2 T00301028
KLZZ 230415Z AUTO 00000KT 10SM CLR 03/M03 A3027 RMK AO2 T00281032
KLZZ 230355Z AUTO 36003KT 10SM CLR 06/M05 A3027 RMK AO2 T00611049
KLZZ 230335Z AUTO 36003KT 10SM CLR 07/M06 A3028 RMK AO2 T00681057
KLZZ 230315Z AUTO 35005KT 10SM CLR 08/M05 A3028 RMK AO2 T00821054
KLZZ 230255Z AUTO 35004KT 10SM CLR 07/M05 A3028 RMK AO2 T00691055
KLZZ 230235Z AUTO 01003KT 10SM CLR 08/M05 A3027 RMK AO2 T00831051
KLZZ 230215Z AUTO 36004KT 10SM CLR 07/M05 A3027 RMK AO2 T00711052
KLZZ 230155Z AUTO 00000KT 7SM CLR 05/M04 A3027 RMK AO2 T00481041
KLZZ 230135Z AUTO 35004KT 10SM CLR 09/M05 A3027 RMK AO2 T00911052
KLZZ 230115Z AUTO 34004KT 10SM CLR 10/M05 A3027 RMK AO2 T01021046
KLZZ 230055Z AUTO 00000KT 10SM CLR 06/M05 A3027 RMK AO2 T00641048
KLZZ 230035Z AUTO 00000KT 10SM CLR 10/M05 A3027 RMK AO2 T01011050
KLZZ 230015Z AUTO 33003KT 10SM CLR 10/M06 A3027 RMK AO2 T01021058
KLZZ 222355Z AUTO 35005KT 10SM CLR 10/M06 A3027 RMK AO2 T01021063 10158 20102
KLZZ 222335Z AUTO 34003KT 10SM CLR 12/M06 A3027 RMK AO2 T01161064
KLZZ 222315Z AUTO 01006KT 10SM CLR 13/M07 A3027 RMK AO2 T01301069
KLZZ 222255Z AUTO 36007KT 10SM CLR 14/M07 A3027 RMK AO2 T01371071
KLZZ 222235Z AUTO 36006KT 10SM CLR 15/M07 A3026 RMK AO2 T01451068
KLZZ 222215Z AUTO 36007KT 10SM CLR 15/M07 A3026 RMK AO2 T01451072
KLZZ 222155Z AUTO 35010G16KT 10SM CLR 15/M07 A3026 RMK AO2 T01451075
KLZZ 222135Z AUTO 36007G14KT 310V010 10SM CLR 15/M07 A3026 RMK AO2 T01451075
KLZZ 222115Z AUTO 36010G14KT 10SM CLR 15/M09 A3026 RMK AO2 T01461086
KLZZ 222055Z AUTO 36011KT 10SM CLR 15/M08 A3026 RMK AO2 T01461085
KLZZ 222035Z AUTO 33011G16KT 10SM CLR 15/M07 A3026 RMK AO2 T01481071
KLZZ 222015Z AUTO 34011G16KT 10SM CLR 15/M08 A3027 RMK AO2 T01471081
KLZZ 221955Z AUTO 33011G16KT 290V350 10SM CLR 15/M07 A3027 RMK AO2 T01461074
KLZZ 221935Z AUTO 34009KT 320V020 10SM CLR 15/M08 A3027 RMK AO2 T01451077
KLZZ 221915Z AUTO 35007KT 10SM CLR 15/M07 A3027 RMK AO2 T01451070
KLZZ 221855Z AUTO 35006KT 10SM CLR 14/M07 A3029 RMK AO2 T01411068
KLZZ 221835Z AUTO 34008G15KT 10SM CLR 14/M07 A3031 RMK AO2 T01371069
KLZZ 221815Z AUTO 01009KT 10SM CLR 13/M07 A3032 RMK AO2 T01301071
KLZZ 221755Z AUTO 01007KT 10SM CLR 13/M06 A3034 RMK AO2 T01301056 10130 20048
KLZZ 221735Z AUTO 35009G14KT 10SM CLR 12/M06 A3035 RMK AO2 T01161057
KLZZ 221715Z AUTO 36009KT 10SM CLR 12/M05 A3036 RMK AO2 T01151053
KLZZ 221655Z AUTO 36009KT 310V030 10SM CLR 11/M05 A3037 RMK AO2 T01101052
KLZZ 221635Z AUTO 36009KT 10SM CLR 10/M05 A3037 RMK AO2 T01021054
KLZZ 221615Z AUTO 02008KT 10SM CLR 10/M04 A3038 RMK AO2 T01021045
KLZZ 221555Z AUTO 34005KT 10SM CLR 10/M04 A3038 RMK AO2 T01021036
KLZZ 221535Z AUTO 35006KT 330V030 10SM CLR 09/M04 A3038 RMK AO2 T00871040
KLZZ 221515Z AUTO 35007KT 10SM CLR 07/M04 A3037 RMK AO2 T00671045
KLZZ 221455Z AUTO 36009G15KT 10SM CLR 07/M04 A3038 RMK AO2 T00721039
KLZZ 221435Z AUTO 35010G15KT 10SM CLR 07/M03 A3038 RMK AO2 T00651033
KLZZ 221415Z AUTO 36011G16KT 10SM CLR 06/M03 A3037 RMK AO2 T00601028
KLZZ 221355Z AUTO 36009KT 10SM CLR 06/M02 A3036 RMK AO2 T00571018
KLZZ 221335Z AUTO 35006KT 10SM CLR 05/M02 A3036 RMK AO2 T00521018
KLZZ 221315Z AUTO 34004KT 10SM CLR 05/M02 A3034 RMK AO2 T00501016
KLZZ 221255Z AUTO 36004KT 10SM CLR 05/M01 A3033 RMK AO2 T00521015
KLZZ 221235Z AUTO 36006KT 10SM CLR 06/M01 A3032 RMK AO2 T00601008
KLZZ 221215Z AUTO 35006KT 10SM CLR 06/M01 A3031 RMK AO2 T00601006
KLZZ 221155Z AUTO 35007KT 10SM CLR 06/00 A3030 RMK AO2 T00610000 10130 20061
KLZZ 221135Z AUTO 35006KT 10SM CLR 07/01 A3030 RMK AO2 T00660005
KLZZ 221115Z AUTO 35006KT 10SM CLR 07/01 A3029 RMK AO2 T00680008
KLZZ 221055Z AUTO 36010G14KT 10SM CLR 07/01 A3028 RMK AO2 T00730011
KLZZ 221035Z AUTO 36006KT 10SM CLR 07/02 A3029 RMK AO2 T00740015
KLZZ 221015Z AUTO 34005KT 10SM CLR 09/03 A3028 RMK AO2 T00870025
KLZZ 220955Z AUTO 34005KT 10SM CLR 09/02 A3027 RMK AO2 T00870024
KLZZ 220935Z AUTO 36005KT 10SM CLR 09/02 A3026 RMK AO2 T00870024
KLZZ 220915Z AUTO 35005KT 10SM CLR 09/03 A3026 RMK AO2 T00870025
KLZZ 220855Z AUTO 36005KT 10SM CLR 10/04 A3024 RMK AO2 T01020036
KLZZ 220835Z AUTO 34004KT 10SM CLR 10/03 A3024 RMK AO2 T01020032
KLZZ 220815Z AUTO 36008KT 10SM CLR 10/03 A3024 RMK AO2 T01020027
KLZZ 220755Z AUTO 03006KT 10SM CLR 10/03 A3022 RMK AO2 T01020027
KLZZ 220735Z AUTO 03008KT 10SM CLR 11/03 A3022 RMK AO2 T01100030
KLZZ 220715Z AUTO 03010G15KT 10SM CLR 11/03 A3022 RMK AO2 T01130033
KLZZ 220655Z AUTO 02007KT 10SM CLR 12/03 A3023 RMK AO2 T01160033
KLZZ 220635Z AUTO 01010G18KT 10SM CLR 12/04 A3023 RMK AO2 T01220037
KLZZ 220615Z AUTO 02009G16KT 10SM CLR 13/05 A3022 RMK AO2 T01300045
KLZZ 220555Z AUTO 02012G18KT 10SM CLR 13/05 A3021 RMK AO2 T01300045 10172 20130 402150087
KLZZ 220535Z AUTO 01011G21KT 10SM CLR 13/04 A3021 RMK AO2 T01300043
KLZZ 220515Z AUTO 01012G20KT 10SM CLR 13/05 A3019 RMK AO2 T01300047
KLZZ 220455Z AUTO 01012G17KT 10SM CLR 13/05 A3019 RMK AO2 T01300050